Fairmount Heights, Maryland
Current Conditions -  °F | °C
As of 11:24 AM on Monday 26 Jan 2015 (Local Time) from KADW Reporting Station
Light Snow Light Snow  
Wind Chill: -5°   Ceiling: 600
Heat Index:   Visibility: 6mi
Dew Point:   Wind: 10mph
Humidity: 100%   Direction: 50°NE
Pressure: 29.77"   Gusts: NA
Location:  38.8854°N, 76.8965°W
Report Text: KADW 261624Z AUTO 05009KT 6SM -SN BR OVC006 00/00 A2977 RMK AO2 $
Loading
Personal Weather Stations






























Interactive Weather Map New forecast layout! Learn more

10-Day Weather Forecast

Advertisements
Track Severe Weather on mobile